createdAt,value
2023-01-27T00:01:18.026Z,-1.25
2023-01-27T00:06:20.586Z,-1.42
2023-01-27T00:11:40.702Z,-1.39
2023-01-27T00:16:43.028Z,-1.41
2023-01-27T00:22:02.028Z,-1.40
2023-01-27T00:27:04.466Z,-1.33
2023-01-27T00:32:24.118Z,-1.48
2023-01-27T00:37:26.427Z,-1.53
2023-01-27T00:42:28.795Z,-1.66
2023-01-27T00:47:31.180Z,-1.91
2023-01-27T00:52:33.474Z,-1.81
2023-01-27T00:57:35.788Z,-1.97
2023-01-27T01:02:38.131Z,-2.03
2023-01-27T01:07:40.538Z,-1.96
2023-01-27T01:12:42.860Z,-1.98
2023-01-27T01:17:45.112Z,-1.97
2023-01-27T01:22:47.372Z,-1.97
2023-01-27T01:27:49.644Z,-1.99
2023-01-27T01:32:51.925Z,-2.10
2023-01-27T01:37:54.229Z,-2.23
2023-01-27T01:42:56.538Z,-1.95
2023-01-27T01:47:58.819Z,-2.03
2023-01-27T01:53:01.115Z,-2.09
2023-01-27T01:58:03.471Z,-1.94
2023-01-27T02:03:05.755Z,-2.03
2023-01-27T02:08:08.082Z,-2.11
2023-01-27T02:13:10.451Z,-2.14
2023-01-27T02:18:12.815Z,-2.37
2023-01-27T02:23:15.132Z,-2.36
2023-01-27T02:28:17.511Z,-2.55
2023-01-27T02:33:19.813Z,-2.45
2023-01-27T02:38:22.264Z,-2.59
2023-01-27T02:43:24.587Z,-2.63
2023-01-27T02:48:27.009Z,-2.69
2023-01-27T02:53:29.303Z,-2.56
2023-01-27T02:58:31.592Z,-2.70
2023-01-27T03:03:33.868Z,-2.81
2023-01-27T03:08:36.124Z,-2.67
2023-01-27T03:13:38.440Z,-2.76
2023-01-27T03:18:40.827Z,-2.70
2023-01-27T03:23:45.612Z,-2.80
2023-01-27T03:29:07.920Z,-2.74
2023-01-27T03:34:10.294Z,-2.75
2023-01-27T03:39:30.319Z,-2.83
2023-01-27T03:44:50.204Z,-2.68
2023-01-27T03:49:52.549Z,-2.64
2023-01-27T03:54:54.916Z,-2.67
2023-01-27T03:59:57.653Z,-2.70
2023-01-27T04:05:17.430Z,-2.62
2023-01-27T04:10:19.795Z,-2.85
2023-01-27T04:15:22.473Z,-2.78
2023-01-27T04:20:24.782Z,-2.87
2023-01-27T04:25:27.111Z,-2.83
2023-01-27T04:30:29.389Z,-2.80
2023-01-27T04:35:38.591Z,-2.74
2023-01-27T04:40:41.251Z,-2.66
2023-01-27T04:45:43.721Z,-2.56
2023-01-27T04:50:46.306Z,-2.64
2023-01-27T04:55:48.716Z,-2.69
2023-01-27T05:00:51.139Z,-2.61
2023-01-27T05:05:53.470Z,-2.52
2023-01-27T05:10:56.128Z,-2.60
2023-01-27T05:15:58.466Z,-2.66
2023-01-27T05:21:01.193Z,-2.63
2023-01-27T05:26:03.543Z,-2.49
2023-01-27T05:31:06.075Z,-2.55
2023-01-27T05:36:08.481Z,-2.44
2023-01-27T05:41:10.753Z,-2.55
2023-01-27T05:46:13.266Z,-2.59
2023-01-27T05:51:15.786Z,-2.50
2023-01-27T05:56:18.221Z,-2.59
2023-01-27T06:01:20.547Z,-2.56
2023-01-27T06:06:22.873Z,-2.56
2023-01-27T06:11:25.188Z,-2.64
2023-01-27T06:16:27.527Z,-2.56
2023-01-27T06:21:29.999Z,-2.54
2023-01-27T06:26:32.393Z,-2.41
2023-01-27T06:31:34.833Z,-2.36
2023-01-27T06:36:37.830Z,-2.41
2023-01-27T06:41:40.358Z,-2.39
2023-01-27T06:46:42.887Z,-2.38
2023-01-27T06:51:45.256Z,-2.33
2023-01-27T06:56:47.672Z,-2.45
2023-01-27T07:01:49.984Z,-2.46
2023-01-27T07:06:52.471Z,-2.23
2023-01-27T07:11:54.798Z,-2.25
2023-01-27T07:16:57.219Z,-2.31
2023-01-27T07:21:59.627Z,-2.17
2023-01-27T07:27:02.374Z,-2.06
2023-01-27T07:32:04.968Z,-2.11
2023-01-27T07:37:07.400Z,-2.13
2023-01-27T07:42:09.941Z,-2.18
2023-01-27T07:47:12.300Z,-2.07
2023-01-27T07:52:15.233Z,-2.05
2023-01-27T07:57:17.601Z,-2.01
2023-01-27T08:02:20.035Z,-1.78
2023-01-27T08:07:23.152Z,-1.72
2023-01-27T08:12:25.491Z,-1.68
2023-01-27T08:17:27.853Z,-1.82
2023-01-27T08:22:30.244Z,-1.85
2023-01-27T08:27:32.606Z,-1.69
2023-01-27T08:32:34.891Z,-1.78
2023-01-27T08:37:37.289Z,-1.66
2023-01-27T08:42:39.590Z,-2.02
2023-01-27T08:47:41.892Z,-2.08
2023-01-27T08:52:44.362Z,-2.02
2023-01-27T08:57:46.720Z,-1.84
2023-01-27T09:03:09.494Z,-1.91
2023-01-27T09:08:32.198Z,-1.85
2023-01-27T09:13:54.914Z,-1.93
2023-01-27T09:18:58.657Z,-1.83
2023-01-27T09:24:01.841Z,-1.86
2023-01-27T09:29:04.207Z,-1.73
2023-01-27T09:34:06.660Z,-2.03
2023-01-27T09:39:09.171Z,-1.98
2023-01-27T09:44:11.577Z,-1.76
2023-01-27T09:49:13.966Z,-1.68
2023-01-27T09:54:16.314Z,-1.80
2023-01-27T09:59:18.677Z,-1.67
2023-01-27T10:04:21.042Z,-1.58
2023-01-27T10:09:23.373Z,-1.78
2023-01-27T10:14:25.662Z,-1.80
2023-01-27T10:19:27.972Z,-1.83
2023-01-27T10:24:30.380Z,-1.85
2023-01-27T10:29:32.750Z,-1.83
2023-01-27T10:34:35.123Z,-1.78
2023-01-27T10:39:39.891Z,-1.72
2023-01-27T10:44:42.179Z,-1.91
2023-01-27T10:49:44.468Z,-1.82
2023-01-27T10:54:46.729Z,-1.72
2023-01-27T11:00:10.836Z,-1.73
2023-01-27T11:05:11.349Z,-1.55
2023-01-27T11:10:14.316Z,-1.36
2023-01-27T11:15:16.812Z,-1.30
2023-01-27T11:20:19.104Z,-1.31
2023-01-27T11:25:21.433Z,-1.20
2023-01-27T11:30:24.021Z,-1.05
2023-01-27T11:35:26.693Z,-1.22
2023-01-27T11:40:29.161Z,-1.34
2023-01-27T11:45:31.585Z,-1.24
2023-01-27T11:50:33.947Z,-1.17
2023-01-27T11:55:36.565Z,-1.26
2023-01-27T12:00:39.076Z,-1.25
2023-01-27T12:05:41.424Z,-1.15
2023-01-27T12:10:43.979Z,-0.73
2023-01-27T12:15:46.514Z,-0.90
2023-01-27T12:20:49.023Z,-1.12
2023-01-27T12:25:51.342Z,-0.76
2023-01-27T12:30:53.998Z,-0.66
2023-01-27T12:35:56.315Z,-0.95
2023-01-27T12:40:58.708Z,-0.77
2023-01-27T12:46:01.023Z,-0.75
2023-01-27T12:51:03.795Z,-0.70
2023-01-27T12:56:06.318Z,-0.62
2023-01-27T13:01:09.308Z,-0.81
2023-01-27T13:06:14.068Z,-0.31
2023-01-27T13:11:16.671Z,-0.24
2023-01-27T13:16:19.146Z,-0.28
2023-01-27T13:21:23.274Z,-0.49
2023-01-27T13:26:25.661Z,-0.82
2023-01-27T13:31:28.116Z,-0.76
2023-01-27T13:36:30.634Z,-0.82
2023-01-27T13:41:33.059Z,-0.64
2023-01-27T13:46:35.437Z,-0.65
2023-01-27T13:51:39.564Z,-0.71
2023-01-27T13:56:42.227Z,-0.58
2023-01-27T14:01:44.755Z,-0.82
2023-01-27T14:06:47.240Z,-0.91
2023-01-27T14:11:49.593Z,-0.82
2023-01-27T14:16:51.905Z,-0.99
2023-01-27T14:21:54.373Z,-0.94
2023-01-27T14:26:57.199Z,-0.87
2023-01-27T14:31:59.758Z,-0.90
2023-01-27T14:37:02.197Z,-0.99
2023-01-27T14:42:04.645Z,-0.95
2023-01-27T14:47:07.003Z,-0.96
2023-01-27T14:52:09.310Z,-1.11
2023-01-27T14:57:11.583Z,-1.11
2023-01-27T15:02:14.106Z,-1.01
2023-01-27T15:07:16.582Z,-1.03
2023-01-27T15:12:18.951Z,-0.89
2023-01-27T15:17:21.416Z,-0.96
2023-01-27T15:22:27.183Z,-1.01
2023-01-27T15:27:29.525Z,-1.11
2023-01-27T15:32:32.085Z,-1.14
2023-01-27T15:37:34.659Z,-1.31
2023-01-27T15:42:36.993Z,-1.33
2023-01-27T15:47:40.593Z,-1.37
2023-01-27T15:52:43.022Z,-1.33
2023-01-27T15:57:45.428Z,-1.34
2023-01-27T16:02:47.995Z,-1.22
2023-01-27T16:07:50.347Z,-1.27
2023-01-27T16:12:52.739Z,-1.19
2023-01-27T16:17:55.163Z,-1.25
2023-01-27T16:22:57.545Z,-1.29
2023-01-27T16:27:59.899Z,-1.24
2023-01-27T16:33:04.309Z,-1.44
2023-01-27T16:38:06.652Z,-1.47
2023-01-27T16:43:09.115Z,-1.55
2023-01-27T16:48:11.520Z,-1.60
2023-01-27T16:53:13.897Z,-1.51
2023-01-27T16:58:16.873Z,-1.34
2023-01-27T17:03:20.234Z,-1.31
2023-01-27T17:08:22.701Z,-1.40
2023-01-27T17:13:25.017Z,-1.36
2023-01-27T17:18:27.358Z,-1.39
2023-01-27T17:23:30.417Z,-1.31
2023-01-27T17:28:32.806Z,-1.17
2023-01-27T17:33:35.159Z,-1.19
2023-01-27T17:38:37.641Z,-1.17
2023-01-27T17:43:41.724Z,-1.27
2023-01-27T17:48:44.107Z,-1.46
2023-01-27T17:53:46.723Z,-1.40
2023-01-27T17:58:50.761Z,-1.34
2023-01-27T18:03:53.854Z,-1.40
2023-01-27T18:08:56.214Z,-1.40
2023-01-27T18:13:58.923Z,-1.26
2023-01-27T18:19:01.304Z,-1.34
2023-01-27T18:24:03.943Z,-1.51
2023-01-27T18:29:06.309Z,-1.51
2023-01-27T18:34:08.686Z,-1.51
2023-01-27T18:39:10.951Z,-1.42
2023-01-27T18:44:13.299Z,-1.40
2023-01-27T18:49:15.690Z,-1.50
2023-01-27T18:54:18.435Z,-1.40
2023-01-27T18:59:20.861Z,-1.57
2023-01-27T19:04:23.577Z,-1.54
2023-01-27T19:09:26.095Z,-1.63
2023-01-27T19:14:28.421Z,-1.52
2023-01-27T19:19:30.810Z,-1.71
2023-01-27T19:24:33.096Z,-1.68
2023-01-27T19:29:35.387Z,-1.85
2023-01-27T19:34:37.730Z,-1.88
2023-01-27T19:39:40.116Z,-1.89
2023-01-27T19:44:42.546Z,-1.93
2023-01-27T19:49:44.883Z,-1.89
2023-01-27T19:54:47.297Z,-1.80
2023-01-27T19:59:49.765Z,-1.80
2023-01-27T20:04:52.249Z,-1.89
2023-01-27T20:09:54.637Z,-1.86
2023-01-27T20:14:57.010Z,-1.97
2023-01-27T20:19:59.276Z,-1.91
2023-01-27T20:25:02.385Z,-1.88
2023-01-27T20:30:04.709Z,-1.86
2023-01-27T20:35:07.235Z,-1.92
2023-01-27T20:40:10.086Z,-1.83
2023-01-27T20:45:12.619Z,-1.90
2023-01-27T20:50:15.045Z,-1.97
2023-01-27T20:55:17.850Z,-2.08
2023-01-27T21:00:20.305Z,-2.02
2023-01-27T21:05:22.609Z,-1.92
2023-01-27T21:10:24.891Z,-2.03
2023-01-27T21:15:27.477Z,-1.96
2023-01-27T21:20:29.787Z,-1.94
2023-01-27T21:25:33.479Z,-1.81
2023-01-27T21:30:35.962Z,-1.99
2023-01-27T21:35:38.461Z,-2.03
2023-01-27T21:40:40.966Z,-2.10
2023-01-27T21:45:43.361Z,-2.05
2023-01-27T21:50:45.677Z,-2.01
2023-01-27T21:55:48.986Z,-2.15
2023-01-27T22:00:51.427Z,-2.19
2023-01-27T22:05:56.215Z,-2.20
2023-01-27T22:10:58.662Z,-2.23
2023-01-27T22:16:01.057Z,-2.15
2023-01-27T22:21:03.552Z,-2.13
2023-01-27T22:26:05.918Z,-2.11
2023-01-27T22:31:08.407Z,-2.14
2023-01-27T22:36:10.845Z,-2.19
2023-01-27T22:41:13.152Z,-2.12
2023-01-27T22:46:15.703Z,-2.11
2023-01-27T22:51:17.998Z,-2.13
2023-01-27T22:56:20.365Z,-2.19
2023-01-27T23:01:22.694Z,-2.24
2023-01-27T23:06:25.127Z,-2.30
2023-01-27T23:11:27.430Z,-2.20
2023-01-27T23:16:30.069Z,-2.19
2023-01-27T23:21:32.490Z,-2.11
2023-01-27T23:26:34.909Z,-2.30
2023-01-27T23:31:37.325Z,-2.27
2023-01-27T23:36:39.765Z,-2.16
2023-01-27T23:41:42.132Z,-2.11
2023-01-27T23:46:44.440Z,-2.12
2023-01-27T23:51:46.735Z,-2.01
2023-01-27T23:56:49.095Z,-2.21
